Time;durP1;ratioP1;P1;durP2;ratioP2;P2;SDS_P1;SDS_P2;PMS_P1;PMS_P2;Temp;Humidity;BMP_temperature;BMP_pressure;BME280_temperature;BME280_humidity;BME280_pressure;Samples;Min_cycle;Max_cycle;Signal;HPM_P1;HPM_P2
2022/08/14 00:01:09;;;;;;;3.13;2.60;;;24.30;72.50;;;;;;5055411;28;20023;-79
2022/08/14 00:03:34;;;;;;;4.80;2.15;;;24.20;72.20;;;;;;5050856;28;20051;-78
2022/08/14 00:06:02;;;;;;;5.05;2.38;;;24.20;72.40;;;;;;5053414;28;20029;-78
2022/08/14 00:08:29;;;;;;;4.57;2.45;;;24.20;72.60;;;;;;5037762;28;20029;-79
2022/08/14 00:10:55;;;;;;;3.85;2.47;;;24.20;72.50;;;;;;5053676;28;20041;-78
2022/08/14 00:13:23;;;;;;;3.28;2.47;;;24.20;72.60;;;;;;5040496;28;20033;-79
2022/08/14 00:15:50;;;;;;;5.88;2.50;;;24.20;72.70;;;;;;5049164;28;20025;-79
2022/08/14 00:18:21;;;;;;;3.75;2.13;;;24.20;72.70;;;;;;5032080;28;20041;-78
2022/08/14 00:20:48;;;;;;;3.53;2.22;;;24.20;72.70;;;;;;5063060;28;20029;-78
2022/08/14 00:23:15;;;;;;;3.78;2.63;;;24.20;72.80;;;;;;5028366;28;20017;-78
2022/08/14 00:25:42;;;;;;;4.68;2.10;;;24.20;72.90;;;;;;5044977;28;20056;-78
2022/08/14 00:28:11;;;;;;;2.70;2.40;;;24.20;72.90;;;;;;5070423;28;20064;-79
2022/08/14 00:30:38;;;;;;;4.72;2.45;;;24.20;73.20;;;;;;5042502;28;20028;-78
2022/08/14 00:33:04;;;;;;;4.28;2.50;;;24.10;73.10;;;;;;5026004;28;20765;-78
2022/08/14 00:35:30;;;;;;;3.72;2.58;;;24.10;73.20;;;;;;5025361;28;20043;-78
2022/08/14 00:37:56;;;;;;;2.60;2.35;;;24.10;73.40;;;;;;5060633;28;20508;-77
2022/08/14 00:40:23;;;;;;;3.92;2.53;;;24.10;73.20;;;;;;5060040;28;20032;-79
2022/08/14 00:42:49;;;;;;;4.90;2.45;;;24.10;73.20;;;;;;5044429;28;20428;-78
2022/08/14 00:45:16;;;;;;;3.85;2.80;;;24.10;73.50;;;;;;5043956;28;20025;-79
2022/08/14 00:47:44;;;;;;;6.60;2.65;;;24.10;73.80;;;;;;5043972;28;20036;-79
2022/08/14 00:50:13;;;;;;;3.10;2.20;;;24.10;73.90;;;;;;5045551;28;20029;-79
2022/08/14 00:52:40;;;;;;;4.53;2.10;;;24.10;74.00;;;;;;5054129;28;20063;-81
2022/08/14 00:55:07;;;;;;;3.33;2.20;;;24.10;73.90;;;;;;5056338;28;20071;-79
2022/08/14 00:57:35;;;;;;;2.50;2.20;;;24.10;74.10;;;;;;5066374;28;20041;-79
2022/08/14 01:00:02;;;;;;;4.40;2.55;;;24.00;73.90;;;;;;5062041;28;20029;-79
2022/08/14 01:02:28;;;;;;;4.88;2.58;;;24.00;74.20;;;;;;5044165;28;20036;-79
2022/08/14 01:04:57;;;;;;;4.90;2.63;;;24.00;74.10;;;;;;5029873;28;20021;-78
2022/08/14 01:07:25;;;;;;;3.70;2.50;;;24.00;74.50;;;;;;5044952;28;20033;-79
2022/08/14 01:10:04;;;;;;;3.13;2.13;;;23.90;74.70;;;;;;5028967;28;20037;-79
2022/08/14 01:12:32;;;;;;;3.22;2.20;;;23.90;74.60;;;;;;5060574;28;20042;-80
2022/08/14 01:14:59;;;;;;;3.10;2.20;;;23.90;74.80;;;;;;5042987;28;20021;-79
2022/08/14 01:22:59;;;;;;;4.30;2.53;;;23.90;75.00;;;;;;5058894;28;20025;-78
2022/08/14 01:25:25;;;;;;;3.90;2.67;;;23.90;75.20;;;;;;5025627;28;20040;-79
2022/08/14 01:27:54;;;;;;;4.18;2.75;;;23.90;75.30;;;;;;5039269;28;20035;-79
2022/08/14 01:30:24;;;;;;;3.92;2.50;;;23.90;75.20;;;;;;5063033;28;20087;-80
2022/08/14 01:32:50;;;;;;;5.07;2.50;;;23.90;75.60;;;;;;5062016;28;20051;-80
2022/08/14 01:35:16;;;;;;;10.20;3.13;;;23.80;75.40;;;;;;5045287;28;20057;-79
2022/08/14 01:37:45;;;;;;;3.80;2.50;;;23.80;75.50;;;;;;5043740;28;20048;-79
2022/08/14 01:40:11;;;;;;;5.15;2.90;;;23.70;75.60;;;;;;5028503;28;20116;-79
2022/08/14 01:42:37;;;;;;;4.63;2.85;;;23.70;75.70;;;;;;5045431;28;20021;-79
2022/08/14 01:45:11;;;;;;;5.38;2.55;;;23.70;75.90;;;;;;5041223;28;20041;-80
2022/08/14 01:47:37;;;;;;;3.20;2.13;;;23.70;76.00;;;;;;5059612;28;20031;-78
2022/08/14 01:50:05;;;;;;;3.88;2.35;;;23.70;76.10;;;;;;5028739;28;20120;-78
2022/08/14 01:52:35;;;;;;;3.92;2.20;;;23.70;76.10;;;;;;5041810;28;20039;-78
2022/08/14 01:55:07;;;;;;;3.97;2.40;;;23.70;76.30;;;;;;5042055;28;20029;-78
2022/08/14 01:57:37;;;;;;;3.92;2.20;;;23.70;76.40;;;;;;5042514;28;20024;-78
2022/08/14 02:00:17;;;;;;;4.47;2.33;;;23.70;76.40;;;;;;5027640;28;20048;-78
2022/08/14 02:02:43;;;;;;;4.63;2.57;;;23.70;76.60;;;;;;5042702;28;20100;-79
2022/08/14 02:05:13;;;;;;;3.97;2.40;;;23.70;76.70;;;;;;5028647;28;20147;-79
2022/08/14 02:07:40;;;;;;;3.05;2.10;;;23.70;76.50;;;;;;5026414;28;20412;-79
2022/08/14 02:10:06;;;;;;;4.45;2.47;;;23.70;76.60;;;;;;5060686;28;20029;-79
2022/08/14 02:12:32;;;;;;;3.90;2.00;;;23.70;76.70;;;;;;5043680;28;20084;-79
2022/08/14 02:14:59;;;;;;;3.95;2.40;;;23.70;76.80;;;;;;5045856;28;20040;-79
2022/08/14 02:17:26;;;;;;;4.90;2.42;;;23.70;77.20;;;;;;5059993;28;20081;-79
2022/08/14 02:19:52;;;;;;;2.53;2.33;;;23.70;77.00;;;;;;5028433;28;20037;-79
2022/08/14 02:22:18;;;;;;;3.50;2.35;;;23.70;77.10;;;;;;5028893;28;20017;-79
2022/08/14 02:24:44;;;;;;;2.83;2.40;;;23.70;77.20;;;;;;5051573;28;20092;-79
2022/08/14 02:27:10;;;;;;;4.40;2.75;;;23.60;77.10;;;;;;5052660;28;20033;-79
2022/08/14 02:29:36;;;;;;;4.70;2.80;;;23.60;77.40;;;;;;5026796;28;20036;-79
2022/08/14 02:32:02;;;;;;;6.00;2.83;;;23.60;77.40;;;;;;5044711;28;20055;-78
2022/08/14 02:34:32;;;;;;;4.13;3.17;;;23.60;77.70;;;;;;5041939;28;20088;-79
2022/08/14 02:37:04;;;;;;;4.90;2.88;;;23.60;77.80;;;;;;5044731;28;20037;-79
2022/08/14 02:39:30;;;;;;;4.28;3.60;;;23.50;77.90;;;;;;5061225;28;20452;-80
2022/08/14 02:41:58;;;;;;;5.53;3.90;;;23.50;78.20;;;;;;5045984;28;20017;-78
2022/08/14 02:44:25;;;;;;;5.45;3.95;;;23.50;78.50;;;;;;5041354;28;20025;-79
2022/08/14 02:46:56;;;;;;;5.30;3.97;;;23.50;78.40;;;;;;5045241;28;20525;-79
2022/08/14 02:49:26;;;;;;;8.05;5.18;;;23.50;78.40;;;;;;5027605;28;20089;-79
2022/08/14 02:51:53;;;;;;;7.10;4.85;;;23.50;78.40;;;;;;5024926;28;20022;-79
2022/08/14 02:54:21;;;;;;;5.78;4.13;;;23.40;78.50;;;;;;5045531;28;20009;-79
2022/08/14 02:56:49;;;;;;;5.00;3.92;;;23.40;78.40;;;;;;5070037;28;20040;-79
2022/08/14 02:59:16;;;;;;;6.97;4.55;;;23.40;79.00;;;;;;5052278;28;20032;-80
2022/08/14 03:01:42;;;;;;;6.03;4.18;;;23.40;79.00;;;;;;5035189;28;20036;-78
2022/08/14 03:04:09;;;;;;;4.85;3.65;;;23.40;79.40;;;;;;5062556;28;20029;-78
2022/08/14 03:06:37;;;;;;;5.00;3.50;;;23.40;79.40;;;;;;5042927;28;20029;-79
2022/08/14 03:09:04;;;;;;;4.47;3.47;;;23.30;79.40;;;;;;5041912;28;20047;-79
2022/08/14 03:11:30;;;;;;;4.07;3.60;;;23.30;79.60;;;;;;5060647;28;20117;-78
2022/08/14 03:13:57;;;;;;;4.90;2.78;;;23.30;79.80;;;;;;5061047;28;20057;-79
2022/08/14 03:16:25;;;;;;;5.45;3.08;;;23.30;79.80;;;;;;5043319;28;20029;-79
2022/08/14 03:18:53;;;;;;;3.80;3.05;;;23.30;80.30;;;;;;5042323;28;20036;-79
2022/08/14 03:21:21;;;;;;;3.40;2.72;;;23.20;80.10;;;;;;5028071;28;20025;-78
2022/08/14 03:23:49;;;;;;;3.95;2.47;;;23.20;80.10;;;;;;5057639;28;20029;-79
2022/08/14 03:26:18;;;;;;;6.00;2.47;;;23.20;80.40;;;;;;5045406;28;20040;-79
2022/08/14 03:28:47;;;;;;;3.03;2.60;;;23.20;80.60;;;;;;5063637;28;20043;-79
2022/08/14 03:31:13;;;;;;;3.60;2.33;;;23.10;81.00;;;;;;5047303;28;20036;-79
2022/08/14 03:33:40;;;;;;;4.90;2.65;;;23.10;80.90;;;;;;5046563;28;20048;-79
2022/08/14 03:36:11;;;;;;;4.68;2.45;;;23.10;81.00;;;;;;5046790;28;20036;-80
2022/08/14 03:38:41;;;;;;;3.55;2.78;;;23.10;81.50;;;;;;5047061;28;20029;-80
2022/08/14 03:41:28;;;;;;;3.88;2.60;;;23.10;81.30;;;;;;5066059;28;20025;-79
2022/08/14 03:44:00;;;;;;;4.05;2.17;;;23.10;81.40;;;;;;5065641;28;20035;-79
2022/08/14 03:46:32;;;;;;;4.60;2.63;;;23.00;81.60;;;;;;5048018;28;20029;-79
2022/08/14 03:49:00;;;;;;;3.40;2.60;;;23.00;81.90;;;;;;5044355;28;20021;-79
2022/08/14 03:51:27;;;;;;;3.95;2.50;;;23.00;82.20;;;;;;5066415;28;20108;-79
2022/08/14 03:53:56;;;;;;;4.05;2.45;;;23.00;82.20;;;;;;5059990;28;20029;-79
2022/08/14 03:56:22;;;;;;;2.17;1.98;;;23.00;82.20;;;;;;5067501;28;20071;-79
2022/08/14 03:58:50;;;;;;;4.60;2.38;;;22.90;82.40;;;;;;5066844;28;20048;-79
2022/08/14 04:01:20;;;;;;;3.30;2.50;;;22.90;82.90;;;;;;5064929;28;20036;-79
2022/08/14 04:03:48;;;;;;;4.05;2.55;;;22.90;82.80;;;;;;5029790;28;21171;-79
2022/08/14 04:06:15;;;;;;;2.80;2.45;;;22.80;82.70;;;;;;5045870;28;20033;-78
2022/08/14 04:08:42;;;;;;;5.82;2.47;;;22.80;82.80;;;;;;5043558;28;20044;-79
2022/08/14 04:11:09;;;;;;;3.40;2.58;;;22.80;82.90;;;;;;5046197;28;20440;-79
2022/08/14 04:13:37;;;;;;;3.28;2.53;;;22.80;83.00;;;;;;5044988;28;20029;-78
2022/08/14 04:16:09;;;;;;;4.22;2.67;;;22.80;83.10;;;;;;5043566;28;20086;-79
2022/08/14 04:18:40;;;;;;;2.53;2.33;;;22.80;83.40;;;;;;5046980;28;20059;-79
2022/08/14 04:21:07;;;;;;;3.53;2.40;;;22.80;83.50;;;;;;5066723;28;20032;-79
2022/08/14 04:23:34;;;;;;;5.00;2.10;;;22.80;83.40;;;;;;5064367;28;20033;-79
2022/08/14 04:26:05;;;;;;;2.78;2.50;;;22.80;83.80;;;;;;5065870;28;20025;-79
2022/08/14 04:28:31;;;;;;;4.60;2.47;;;22.80;84.10;;;;;;5063783;28;20132;-79
2022/08/14 04:30:57;;;;;;;4.30;2.30;;;22.70;83.80;;;;;;5045927;28;20037;-79
2022/08/14 04:33:23;;;;;;;3.22;2.60;;;22.70;83.90;;;;;;5053585;28;20067;-78
2022/08/14 04:35:51;;;;;;;4.22;2.47;;;22.70;84.10;;;;;;5071976;28;20036;-79
2022/08/14 04:43:48;;;;;;;5.15;2.53;;;22.80;84.70;;;;;;5043601;28;20021;-79
2022/08/14 04:46:17;;;;;;;6.32;2.30;;;22.80;85.00;;;;;;5028328;28;20271;-78
2022/08/14 04:48:44;;;;;;;4.97;2.22;;;22.80;84.90;;;;;;5036018;28;20481;-79
2022/08/14 04:51:17;;;;;;;3.90;2.13;;;22.80;85.30;;;;;;5039382;28;20025;-79
2022/08/14 04:53:44;;;;;;;4.43;1.95;;;22.80;85.20;;;;;;5057211;28;20036;-80
2022/08/14 04:56:22;;;;;;;9.18;2.78;;;22.90;85.20;;;;;;5064503;28;20198;-79
2022/08/14 04:58:50;;;;;;;3.33;2.30;;;22.90;85.90;;;;;;5027572;28;20033;-79
2022/08/14 05:01:16;;;;;;;4.95;2.60;;;22.80;85.10;;;;;;5061388;28;20505;-79
2022/08/14 05:03:43;;;;;;;5.05;2.10;;;22.80;85.80;;;;;;5045339;28;20071;-80
2022/08/14 05:06:11;;;;;;;4.47;2.38;;;22.80;85.90;;;;;;5043662;28;20108;-78
2022/08/14 05:08:37;;;;;;;3.80;2.22;;;22.80;86.00;;;;;;5024869;28;20048;-79
2022/08/14 05:11:05;;;;;;;5.20;2.75;;;22.80;86.00;;;;;;5060325;28;20029;-79
2022/08/14 05:13:32;;;;;;;4.72;2.10;;;22.90;86.30;;;;;;5068539;28;20040;-79
2022/08/14 05:15:59;;;;;;;4.63;2.80;;;22.90;86.20;;;;;;5066216;28;20021;-78
2022/08/14 05:18:30;;;;;;;3.75;2.30;;;23.00;86.00;;;;;;5053130;28;20033;-82
2022/08/14 05:20:58;;;;;;;3.63;2.40;;;22.90;86.20;;;;;;5050262;28;20029;-79
2022/08/14 05:23:27;;;;;;;4.30;2.30;;;22.90;86.70;;;;;;5033406;28;20040;-79
2022/08/14 05:26:16;;;;;;;5.20;2.63;;;22.90;86.70;;;;;;5050898;28;20199;-78
2022/08/14 05:28:43;;;;;;;4.40;2.60;;;22.90;87.40;;;;;;5067775;28;20044;-79
2022/08/14 05:31:10;;;;;;;4.80;2.20;;;22.90;87.20;;;;;;5049989;28;20045;-79
2022/08/14 05:33:36;;;;;;;5.03;2.15;;;22.90;87.60;;;;;;5050874;28;20028;-79
2022/08/14 05:36:06;;;;;;;4.15;2.55;;;22.90;87.70;;;;;;5067553;28;20056;-78
2022/08/14 05:38:37;;;;;;;6.95;2.53;;;22.90;87.90;;;;;;5047598;28;20061;-79
2022/08/14 05:41:05;;;;;;;7.10;2.85;;;22.90;88.00;;;;;;5052272;28;20032;-79
2022/08/14 05:43:32;;;;;;;4.75;2.33;;;22.80;88.10;;;;;;5070059;28;20091;-78
2022/08/14 05:45:58;;;;;;;3.00;2.03;;;22.90;88.50;;;;;;5050846;28;20029;-79
2022/08/14 05:48:25;;;;;;;4.70;2.53;;;22.90;88.30;;;;;;5033531;28;20025;-78
2022/08/14 05:50:53;;;;;;;6.63;2.50;;;23.00;88.50;;;;;;5038195;28;20032;-77
2022/08/14 05:53:20;;;;;;;5.15;2.25;;;23.00;88.70;;;;;;5058591;28;20037;-78
2022/08/14 05:55:47;;;;;;;3.30;2.47;;;23.10;88.80;;;;;;5036214;28;20500;-78
2022/08/14 05:58:13;;;;;;;5.57;2.65;;;23.10;88.60;;;;;;5056761;28;20028;-78
2022/08/14 06:00:42;;;;;;;4.28;2.25;;;23.10;88.50;;;;;;5053180;28;20037;-78
2022/08/14 06:03:15;;;;;;;4.97;2.38;;;23.20;88.50;;;;;;5037899;28;20021;-78
2022/08/14 06:05:42;;;;;;;4.63;2.47;;;23.20;89.00;;;;;;5049512;28;20029;-78
2022/08/14 06:08:22;;;;;;;5.80;2.42;;;23.20;88.80;;;;;;5037742;28;20505;-78
2022/08/14 06:10:49;;;;;;;5.43;2.42;;;23.20;88.80;;;;;;5037927;28;20044;-78
2022/08/14 06:13:15;;;;;;;5.30;2.60;;;23.10;88.70;;;;;;5039201;28;20039;-78
2022/08/14 06:15:42;;;;;;;3.40;2.30;;;23.10;89.30;;;;;;5033355;28;20037;-78
2022/08/14 06:18:08;;;;;;;4.45;2.45;;;23.10;89.00;;;;;;5038828;28;20033;-78
2022/08/14 06:20:34;;;;;;;2.45;2.17;;;23.10;89.10;;;;;;5015461;28;20031;-78
2022/08/14 06:23:00;;;;;;;5.20;2.88;;;23.10;89.80;;;;;;5056629;28;20037;-79
2022/08/14 06:25:26;;;;;;;6.07;2.78;;;23.10;89.60;;;;;;5040039;28;20192;-78
2022/08/14 06:27:52;;;;;;;6.22;2.90;;;23.10;89.60;;;;;;5016735;28;20039;-74
2022/08/14 06:30:20;;;;;;;6.18;2.78;;;23.20;90.00;;;;;;5032010;28;20131;-73
2022/08/14 06:32:46;;;;;;;5.15;2.70;;;23.30;89.80;;;;;;5030602;28;20040;-74
2022/08/14 06:35:13;;;;;;;6.90;2.58;;;23.30;90.30;;;;;;5009441;28;20033;-73
2022/08/14 06:37:57;;;;;;;6.28;2.88;;;23.20;90.20;;;;;;5010818;28;20067;-73
2022/08/14 06:40:25;;;;;;;5.75;2.85;;;23.30;90.10;;;;;;5046508;28;20037;-75
2022/08/14 06:42:51;;;;;;;10.43;2.58;;;23.30;90.20;;;;;;5038140;28;20032;-78
2022/08/14 06:45:17;;;;;;;9.88;3.40;;;23.30;90.10;;;;;;5041267;28;20757;-78
2022/08/14 06:47:45;;;;;;;4.25;2.42;;;23.30;90.00;;;;;;5058362;28;20032;-78
2022/08/14 06:50:14;;;;;;;3.63;2.60;;;23.40;90.10;;;;;;5044273;28;20050;-78
2022/08/14 06:52:40;;;;;;;7.53;2.60;;;23.40;90.10;;;;;;5060734;28;20116;-78
2022/08/14 06:55:07;;;;;;;4.95;2.63;;;23.40;90.10;;;;;;5044213;28;20059;-79
2022/08/14 06:57:39;;;;;;;3.90;2.58;;;23.50;90.10;;;;;;5056681;28;20041;-77
2022/08/14 07:00:18;;;;;;;6.07;3.00;;;23.50;90.00;;;;;;5010255;28;20021;-76
2022/08/14 07:05:48;;;;;;;4.15;2.63;;;23.70;89.80;;;;;;5067250;28;20083;-80
2022/08/14 07:08:20;;;;;;;4.68;3.20;;;23.70;89.90;;;;;;5052220;28;20052;-78
2022/08/14 07:10:53;;;;;;;3.67;2.60;;;23.80;90.10;;;;;;5050403;28;20408;-79
2022/08/14 07:13:20;;;;;;;4.38;3.00;;;23.80;90.00;;;;;;5045008;28;20029;-79
2022/08/14 07:15:51;;;;;;;5.95;2.50;;;23.80;90.10;;;;;;5031900;28;20052;-77
2022/08/14 07:18:31;;;;;;;4.65;2.90;;;23.80;90.10;;;;;;5066018;28;20040;-78
2022/08/14 07:20:58;;;;;;;4.45;2.67;;;23.70;90.20;;;;;;5048521;28;20032;-78
2022/08/14 07:23:25;;;;;;;8.05;2.80;;;23.70;90.30;;;;;;5056593;28;20036;-78
2022/08/14 07:25:55;;;;;;;5.68;2.80;;;23.70;90.30;;;;;;5064711;28;20040;-79
2022/08/14 07:28:27;;;;;;;4.40;2.67;;;23.70;90.50;;;;;;5067033;28;20032;-79
2022/08/14 07:30:56;;;;;;;11.50;3.08;;;23.70;90.50;;;;;;5067245;28;20033;-80
2022/08/14 07:33:23;;;;;;;5.45;2.83;;;23.70;90.40;;;;;;5063723;28;20067;-79
2022/08/14 07:35:49;;;;;;;4.55;2.92;;;23.80;90.40;;;;;;5043389;28;20036;-77
2022/08/14 07:38:20;;;;;;;5.68;3.40;;;23.90;90.40;;;;;;5039906;28;20025;-77
2022/08/14 07:40:47;;;;;;;6.30;3.00;;;24.00;90.50;;;;;;5028544;28;20025;-77
2022/08/14 07:43:13;;;;;;;4.63;2.60;;;24.10;90.40;;;;;;5064389;28;20043;-79
2022/08/14 07:45:40;;;;;;;3.83;2.90;;;24.10;90.30;;;;;;5044663;28;20045;-79
2022/08/14 07:48:06;;;;;;;5.45;2.70;;;24.20;90.20;;;;;;5061046;28;20033;-78
2022/08/14 07:50:32;;;;;;;5.15;2.58;;;24.20;90.20;;;;;;5049799;28;20028;-79
2022/08/14 07:52:59;;;;;;;8.55;2.95;;;24.30;90.20;;;;;;5046541;28;20033;-76
2022/08/14 07:55:26;;;;;;;6.53;3.13;;;24.40;90.40;;;;;;5030116;28;20099;-78
2022/08/14 07:57:52;;;;;;;5.13;3.03;;;24.40;90.20;;;;;;5026896;28;20044;-78
2022/08/14 08:00:22;;;;;;;3.65;2.70;;;24.40;90.10;;;;;;5057389;28;20025;-76
2022/08/14 08:02:52;;;;;;;5.63;2.88;;;24.50;90.10;;;;;;5044196;28;20056;-78
2022/08/14 08:05:22;;;;;;;4.72;2.83;;;24.50;90.20;;;;;;5053975;28;20483;-74
2022/08/14 08:07:48;;;;;;;3.78;2.90;;;24.60;90.00;;;;;;5014301;28;20043;-72
2022/08/14 08:10:31;;;;;;;4.03;2.72;;;24.70;89.80;;;;;;5045775;28;20052;-74
2022/08/14 08:13:09;;;;;;;3.20;2.47;;;24.80;89.70;;;;;;5042766;28;20052;-76
2022/08/14 08:15:38;;;;;;;6.65;3.15;;;25.00;89.40;;;;;;5045000;28;20397;-77
2022/08/14 08:18:06;;;;;;;8.38;3.50;;;25.10;89.00;;;;;;5045434;28;20052;-77
2022/08/14 08:20:37;;;;;;;5.60;3.22;;;25.20;88.30;;;;;;5023803;28;20484;-76
2022/08/14 08:23:04;;;;;;;7.70;3.30;;;25.40;88.40;;;;;;5042819;28;20622;-75
2022/08/14 08:25:33;;;;;;;4.57;3.33;;;25.50;88.30;;;;;;5030755;28;20040;-77
2022/08/14 08:28:01;;;;;;;4.65;3.25;;;25.70;88.00;;;;;;5039767;28;21755;-77
2022/08/14 08:30:29;;;;;;;4.55;3.05;;;25.70;87.50;;;;;;5030374;28;20555;-75
2022/08/14 08:32:57;;;;;;;4.85;3.15;;;25.60;86.90;;;;;;5030879;28;20127;-72
2022/08/14 08:35:29;;;;;;;4.88;3.35;;;25.60;87.00;;;;;;5047958;28;20025;-75
2022/08/14 08:38:02;;;;;;;7.00;3.08;;;25.50;87.20;;;;;;5031284;28;20405;-75
2022/08/14 08:40:35;;;;;;;3.75;2.80;;;25.50;87.50;;;;;;5027239;28;20501;-74
2022/08/14 08:43:05;;;;;;;4.45;3.22;;;25.40;87.30;;;;;;5030242;28;20037;-74
2022/08/14 08:45:32;;;;;;;5.78;3.72;;;25.50;87.60;;;;;;5046043;28;20580;-77
2022/08/14 08:47:59;;;;;;;3.22;2.88;;;25.50;87.50;;;;;;5043586;28;20095;-78
2022/08/14 08:50:29;;;;;;;4.47;3.35;;;25.60;87.30;;;;;;5038023;28;20032;-76
2022/08/14 08:52:58;;;;;;;5.45;3.40;;;25.70;87.30;;;;;;5041993;28;20033;-77
2022/08/14 08:55:33;;;;;;;5.63;3.45;;;25.80;87.70;;;;;;5030758;28;20029;-77
2022/08/14 08:58:05;;;;;;;4.65;3.58;;;25.90;87.50;;;;;;5029356;28;20055;-77
2022/08/14 09:00:34;;;;;;;4.10;3.40;;;25.90;86.70;;;;;;5031790;28;20024;-76
2022/08/14 09:03:11;;;;;;;4.85;3.22;;;26.10;86.80;;;;;;5033758;28;20028;-77
2022/08/14 09:05:48;;;;;;;4.53;3.58;;;26.20;86.60;;;;;;5015306;28;20025;-77
2022/08/14 09:08:18;;;;;;;4.53;3.45;;;26.20;86.90;;;;;;5016360;28;20033;-77
2022/08/14 09:10:44;;;;;;;6.45;3.53;;;26.30;86.40;;;;;;5029859;28;20075;-77
2022/08/14 09:13:11;;;;;;;8.15;4.10;;;26.40;86.10;;;;;;5014110;28;20638;-77
2022/08/14 09:15:46;;;;;;;4.95;3.83;;;26.50;85.80;;;;;;5031085;28;20029;-76
2022/08/14 09:18:14;;;;;;;4.07;3.70;;;26.60;85.90;;;;;;5014803;28;20055;-77
2022/08/14 09:20:43;;;;;;;5.30;3.65;;;26.60;85.20;;;;;;5018855;28;20025;-77
2022/08/14 09:23:09;;;;;;;4.57;3.85;;;26.60;85.60;;;;;;5054123;28;20025;-78
2022/08/14 09:25:36;;;;;;;7.03;3.50;;;26.80;85.10;;;;;;5030009;28;20045;-78
2022/08/14 09:28:04;;;;;;;4.18;3.45;;;26.80;84.80;;;;;;5046965;28;20093;-77
2022/08/14 09:30:32;;;;;;;7.97;4.22;;;26.80;84.80;;;;;;5021832;28;20056;-77
2022/08/14 09:33:01;;;;;;;6.38;4.38;;;26.90;84.20;;;;;;5045214;28;20025;-78
2022/08/14 09:35:59;;;;;;;5.40;3.70;;;27.10;83.90;;;;;;5032641;28;20040;-78
2022/08/14 09:38:43;;;;;;;6.15;4.13;;;27.30;83.40;;;;;;5032074;28;20091;-76
2022/08/14 09:41:22;;;;;;;8.30;3.80;;;27.30;83.50;;;;;;5048544;28;20021;-77
2022/08/14 09:44:14;;;;;;;6.15;3.80;;;27.40;82.90;;;;;;5026537;28;20017;-77
2022/08/14 09:46:55;;;;;;;4.20;3.80;;;27.30;82.80;;;;;;5031587;28;20174;-77
2022/08/14 09:49:33;;;;;;;4.93;3.90;;;27.30;83.00;;;;;;5028627;28;20025;-76
2022/08/14 09:52:10;;;;;;;4.72;3.85;;;27.40;83.00;;;;;;5030930;28;20439;-79
2022/08/14 09:54:47;;;;;;;10.32;4.22;;;27.50;82.40;;;;;;5046817;28;20234;-77
2022/08/14 09:57:29;;;;;;;4.75;4.25;;;27.50;82.20;;;;;;5033421;28;20425;-77
2022/08/14 09:59:56;;;;;;;5.97;4.28;;;27.60;81.60;;;;;;5052436;28;20516;-77
2022/08/14 10:02:23;;;;;;;4.82;4.05;;;27.60;81.70;;;;;;5037065;28;20025;-77
2022/08/14 10:05:02;;;;;;;6.25;4.68;;;27.50;81.30;;;;;;5023596;28;20036;-77
2022/08/14 10:07:33;;;;;;;10.15;4.40;;;27.50;81.40;;;;;;5004039;28;20037;-77
2022/08/14 10:10:01;;;;;;;6.13;4.20;;;27.50;81.70;;;;;;5043151;28;20036;-75
2022/08/14 10:12:44;;;;;;;4.40;4.00;;;27.50;81.90;;;;;;5027658;28;20033;-80
2022/08/14 10:15:19;;;;;;;6.22;4.07;;;27.50;81.80;;;;;;5033728;28;20031;-80
2022/08/14 10:17:47;;;;;;;8.70;4.70;;;27.50;81.90;;;;;;5038268;28;20028;-77
2022/08/14 10:20:21;;;;;;;7.90;5.20;;;27.50;81.60;;;;;;5043581;28;20139;-74
2022/08/14 10:22:48;;;;;;;9.68;4.50;;;27.40;81.80;;;;;;5048015;28;20024;-77
2022/08/14 10:25:39;;;;;;;8.52;4.63;;;27.40;81.50;;;;;;5048423;28;20036;-78
2022/08/14 10:28:05;;;;;;;7.10;5.05;;;27.20;81.50;;;;;;5016761;28;20059;-79
2022/08/14 10:30:36;;;;;;;9.85;4.75;;;27.20;80.70;;;;;;5052900;28;20496;-76
2022/08/14 10:33:02;;;;;;;6.65;4.93;;;27.20;81.30;;;;;;5033360;28;20618;-76
2022/08/14 10:35:39;;;;;;;9.25;4.75;;;27.20;81.60;;;;;;5020833;28;20044;-77
2022/08/14 10:38:06;;;;;;;6.07;4.60;;;27.30;81.50;;;;;;5051189;28;20067;-76
2022/08/14 10:40:31;;;;;;;12.98;5.15;;;27.40;81.40;;;;;;5019020;28;20365;-78
2022/08/14 10:42:57;;;;;;;6.57;4.88;;;27.40;81.90;;;;;;5049873;28;20047;-75
2022/08/14 10:45:32;;;;;;;10.68;5.30;;;27.50;81.30;;;;;;5031303;28;20116;-77
2022/08/14 10:48:00;;;;;;;5.85;4.88;;;27.60;81.40;;;;;;5043726;28;20096;-74
2022/08/14 10:50:34;;;;;;;8.38;5.70;;;27.60;80.70;;;;;;5043691;28;20254;-76
2022/08/14 10:53:04;;;;;;;17.63;13.48;;;27.70;80.50;;;;;;5034788;28;20098;-75
2022/08/14 10:55:38;;;;;;;32.90;21.98;;;27.80;80.80;;;;;;5021577;28;20087;-75
2022/08/14 10:58:10;;;;;;;7.68;5.70;;;27.90;80.50;;;;;;5021310;28;20029;-75
2022/08/14 11:00:41;;;;;;;9.00;4.88;;;27.90;80.70;;;;;;5023954;28;20106;-76
2022/08/14 11:03:16;;;;;;;6.47;4.93;;;28.00;81.00;;;;;;5047360;28;20170;-75
2022/08/14 11:05:43;;;;;;;5.13;4.72;;;27.90;79.90;;;;;;5047665;28;20033;-75
2022/08/14 11:08:10;;;;;;;7.85;5.07;;;27.90;80.10;;;;;;5030223;28;20025;-74
2022/08/14 11:10:42;;;;;;;5.97;5.15;;;28.00;80.70;;;;;;5045768;28;20029;-75
2022/08/14 11:13:13;;;;;;;6.13;4.68;;;28.00;79.80;;;;;;5050905;28;20029;-75
2022/08/14 11:15:39;;;;;;;9.00;5.68;;;28.00;80.00;;;;;;5026476;28;22001;-76
2022/08/14 11:18:05;;;;;;;6.40;5.15;;;27.90;79.50;;;;;;5006307;28;20182;-76
2022/08/14 11:20:31;;;;;;;5.68;5.13;;;28.00;80.00;;;;;;5008889;28;21406;-76
2022/08/14 11:23:00;;;;;;;7.25;5.07;;;28.10;79.00;;;;;;5020834;28;20072;-74
2022/08/14 11:25:30;;;;;;;6.65;4.93;;;28.10;79.50;;;;;;5020579;28;20028;-74
2022/08/14 11:27:58;;;;;;;9.07;4.77;;;28.10;79.00;;;;;;5039389;28;20048;-74
2022/08/14 11:30:26;;;;;;;6.53;5.38;;;28.20;79.70;;;;;;5044173;28;20033;-75
2022/08/14 11:32:53;;;;;;;8.70;5.28;;;28.20;79.60;;;;;;5046156;28;20036;-74
2022/08/14 11:35:22;;;;;;;8.98;5.35;;;28.10;79.00;;;;;;5040585;28;20029;-75
2022/08/14 11:37:52;;;;;;;9.02;5.25;;;28.20;79.50;;;;;;5045249;28;20037;-75
2022/08/14 11:40:18;;;;;;;;;;;28.30;78.40;;;;;;5048184;28;20028;-74
2022/08/14 11:42:46;;;;;;;6.55;5.10;;;28.30;79.20;;;;;;5047862;28;19913;-74
2022/08/14 11:45:13;;;;;;;7.15;5.13;;;28.30;79.70;;;;;;5044497;28;20024;-76
2022/08/14 11:47:39;;;;;;;6.95;4.85;;;28.40;79.20;;;;;;5045217;28;20116;-75
2022/08/14 11:50:32;;;;;;;7.85;4.90;;;28.40;79.50;;;;;;5048911;28;20108;-75
2022/08/14 11:53:01;;;;;;;6.05;4.78;;;28.40;79.30;;;;;;5024441;28;20072;-74
2022/08/14 11:55:33;;;;;;;9.45;5.25;;;28.50;79.90;;;;;;5042576;28;20029;-75
2022/08/14 11:58:08;;;;;;;5.55;4.30;;;28.40;78.10;;;;;;5044265;28;20029;-75
2022/08/14 12:00:45;;;;;;;8.07;5.57;;;28.40;78.70;;;;;;5028586;28;20036;-75
2022/08/14 12:03:17;;;;;;;5.45;4.90;;;28.30;77.90;;;;;;5043675;28;20025;-76
2022/08/14 12:05:45;;;;;;;5.78;4.97;;;28.30;78.20;;;;;;5028804;28;20059;-76
2022/08/14 12:08:11;;;;;;;7.07;5.40;;;28.40;78.60;;;;;;5043796;28;20054;-76
2022/08/14 12:10:43;;;;;;;5.85;5.30;;;28.30;78.10;;;;;;5042434;28;20405;-76
2022/08/14 12:13:15;;;;;;;6.00;4.82;;;28.20;77.80;;;;;;5055039;28;20032;-76
2022/08/14 12:15:42;;;;;;;6.78;5.18;;;28.10;78.20;;;;;;5031413;28;20025;-71
2022/08/14 12:18:10;;;;;;;8.40;5.22;;;28.10;77.80;;;;;;5048561;28;20029;-79
2022/08/14 12:20:41;;;;;;;8.77;5.38;;;28.10;77.80;;;;;;5050405;28;20025;-78
2022/08/14 12:23:23;;;;;;;8.68;5.32;;;28.00;77.80;;;;;;5050632;28;20106;-82
2022/08/14 12:25:49;;;;;;;10.10;5.28;;;28.00;77.90;;;;;;5034670;28;20021;-78
2022/08/14 12:28:17;;;;;;;7.57;5.60;;;28.00;77.90;;;;;;5035273;28;20519;-78
2022/08/14 12:30:44;;;;;;;6.88;5.65;;;28.00;78.20;;;;;;5010760;28;20041;-77
2022/08/14 12:33:25;;;;;;;6.78;5.38;;;28.10;78.20;;;;;;5027140;28;20032;-78
2022/08/14 12:35:54;;;;;;;7.65;5.72;;;28.20;78.20;;;;;;5030905;28;20372;-77
2022/08/14 12:38:31;;;;;;;6.03;5.15;;;28.30;78.70;;;;;;5030940;28;20033;-78
2022/08/14 12:40:57;;;;;;;5.72;5.13;;;28.30;78.50;;;;;;5032953;28;20076;-78
2022/08/14 12:43:23;;;;;;;9.02;5.40;;;28.30;77.90;;;;;;5027988;28;20101;-75
2022/08/14 12:45:55;;;;;;;9.25;5.88;;;28.30;77.80;;;;;;5046042;28;20025;-74
2022/08/14 12:48:23;;;;;;;7.43;5.53;;;28.30;77.40;;;;;;5046690;28;20558;-74
2022/08/14 12:50:51;;;;;;;5.85;5.30;;;28.20;77.40;;;;;;5043535;28;20033;-78
2022/08/14 12:53:17;;;;;;;9.13;5.20;;;28.40;77.70;;;;;;5030757;28;20040;-76
2022/08/14 12:55:45;;;;;;;6.40;5.15;;;28.60;78.60;;;;;;5048719;28;20025;-80
2022/08/14 12:58:11;;;;;;;7.13;5.25;;;28.70;77.60;;;;;;5029030;28;20033;-79
2022/08/14 13:00:49;;;;;;;6.15;5.55;;;29.10;77.80;;;;;;5023223;28;20025;-76
2022/08/14 13:03:25;;;;;;;6.50;5.47;;;29.40;77.00;;;;;;5047098;28;20033;-77
2022/08/14 13:05:52;;;;;;;6.53;5.93;;;29.70;76.30;;;;;;5039558;28;20492;-76
2022/08/14 13:08:18;;;;;;;6.75;5.80;;;30.00;75.80;;;;;;5028939;28;20033;-78
2022/08/14 13:10:46;;;;;;;7.28;5.57;;;30.20;74.10;;;;;;5028465;28;20052;-77